Time;durP1;ratioP1;P1;durP2;ratioP2;P2;SDS_P1;SDS_P2;PMS_P1;PMS_P2;Temp;Humidity;BMP_temperature;BMP_pressure;BME280_temperature;BME280_humidity;BME280_pressure;Samples;Min_cycle;Max_cycle;Signal;HPM_P1;HPM_P2
2022/06/15 00:00:14;;;;;;;9.02;4.65;;;14.90;99.90;;;;;;4212560;28;20099;-84
2022/06/15 00:02:15;;;;;;;9.00;5.00;;;14.80;99.90;;;;;;4215856;28;20052;-87
2022/06/15 00:04:16;;;;;;;10.25;5.03;;;14.80;99.90;;;;;;4236227;27;20043;-86
2022/06/15 00:06:25;;;;;;;7.43;4.45;;;14.80;99.90;;;;;;4232141;28;20051;-86
2022/06/15 00:08:26;;;;;;;9.23;4.00;;;14.70;99.90;;;;;;4250804;27;20058;-86
2022/06/15 00:10:27;;;;;;;8.30;4.60;;;14.70;99.90;;;;;;4250405;27;20043;-86
2022/06/15 00:12:27;;;;;;;7.65;3.75;;;14.70;99.90;;;;;;4250548;27;20135;-86
2022/06/15 00:14:29;;;;;;;6.50;4.18;;;14.60;99.90;;;;;;4249964;27;20043;-86
2022/06/15 00:16:30;;;;;;;8.43;4.13;;;14.60;99.90;;;;;;4250315;27;20122;-87
2022/06/15 00:18:32;;;;;;;10.07;4.72;;;14.60;99.90;;;;;;4250596;27;20043;-85
2022/06/15 00:20:32;;;;;;;9.18;3.80;;;14.50;99.90;;;;;;4250536;27;20078;-87
2022/06/15 00:22:33;;;;;;;11.07;4.32;;;14.40;99.90;;;;;;4250499;27;20080;-86
2022/06/15 00:24:34;;;;;;;10.32;4.35;;;14.40;99.90;;;;;;4250516;27;20081;-86
2022/06/15 00:26:36;;;;;;;8.75;4.60;;;14.30;99.90;;;;;;4249899;27;20068;-86
2022/06/15 00:28:36;;;;;;;7.35;3.85;;;14.30;99.90;;;;;;4250669;27;20054;-86
2022/06/15 00:30:37;;;;;;;9.25;4.63;;;14.20;99.90;;;;;;4250365;27;20043;-86
2022/06/15 00:32:38;;;;;;;8.35;3.55;;;14.20;99.90;;;;;;4250236;27;20053;-86
2022/06/15 00:34:39;;;;;;;9.15;3.95;;;14.10;99.90;;;;;;4250289;27;20047;-86
2022/06/15 00:36:39;;;;;;;10.70;3.85;;;14.10;99.90;;;;;;4250078;27;20071;-86
2022/06/15 00:38:46;;;;;;;7.78;3.67;;;14.00;99.90;;;;;;4250052;27;20044;-86
2022/06/15 00:40:46;;;;;;;7.78;3.70;;;14.00;99.90;;;;;;4250154;27;20480;-86
2022/06/15 00:42:51;;;;;;;6.05;3.40;;;14.00;99.90;;;;;;4250297;27;20140;-86
2022/06/15 00:44:51;;;;;;;7.75;3.65;;;13.90;99.90;;;;;;4231782;28;20071;-85
2022/06/15 00:46:59;;;;;;;5.55;3.35;;;13.90;99.90;;;;;;4231728;28;20043;-86
2022/06/15 00:49:26;;;;;;;8.85;4.20;;;13.90;99.90;;;;;;4249791;27;20047;-86
2022/06/15 00:51:28;;;;;;;8.02;3.55;;;13.80;99.90;;;;;;4249469;27;20043;-86
2022/06/15 00:53:29;;;;;;;8.20;3.67;;;13.80;99.90;;;;;;4249513;27;20035;-87
2022/06/15 00:55:32;;;;;;;8.90;3.55;;;13.70;99.90;;;;;;4250010;27;20077;-87
2022/06/15 00:57:33;;;;;;;6.93;3.58;;;13.70;99.90;;;;;;4249840;27;20079;-86
2022/06/15 00:59:40;;;;;;;9.40;4.57;;;13.70;99.90;;;;;;4250002;27;20036;-87
2022/06/15 01:01:41;;;;;;;5.65;3.28;;;13.70;99.90;;;;;;4230819;28;20044;-86
2022/06/15 01:03:43;;;;;;;6.40;4.10;;;13.60;99.90;;;;;;4249517;27;20526;-86
2022/06/15 01:06:02;;;;;;;8.20;4.43;;;13.70;99.90;;;;;;4249860;27;20046;-86
2022/06/15 01:08:12;;;;;;;5.90;3.78;;;13.60;99.90;;;;;;4250193;27;20050;-86
2022/06/15 01:10:18;;;;;;;9.70;4.00;;;13.30;99.90;;;;;;4249596;27;20521;-87
2022/06/15 01:12:35;;;;;;;11.45;3.83;;;13.50;99.90;;;;;;4248854;27;20047;-86
2022/06/15 01:14:55;;;;;;;9.10;3.97;;;13.40;99.90;;;;;;4249317;27;20066;-85
2022/06/15 01:17:14;;;;;;;12.23;4.85;;;13.40;99.90;;;;;;4249648;27;20058;-86
2022/06/15 01:19:43;;;;;;;8.15;3.85;;;13.40;99.90;;;;;;4249849;27;20126;-87
2022/06/15 01:22:05;;;;;;;8.20;3.75;;;13.30;99.90;;;;;;4214369;28;20050;-86
2022/06/15 01:24:46;;;;;;;12.07;4.82;;;13.30;99.90;;;;;;4249429;27;20490;-87
2022/06/15 01:26:58;;;;;;;5.13;3.50;;;13.30;99.90;;;;;;4249533;27;20039;-87
2022/06/15 01:29:10;;;;;;;5.97;4.03;;;13.30;99.90;;;;;;4249479;27;20043;-86
2022/06/15 01:31:34;;;;;;;7.55;3.72;;;13.20;99.90;;;;;;4249187;27;20047;-85
2022/06/15 01:34:01;;;;;;;15.00;3.92;;;13.20;99.90;;;;;;4248753;27;20116;-86
2022/06/15 01:36:09;;;;;;;8.68;4.13;;;13.20;99.90;;;;;;4231033;28;20043;-86
2022/06/15 01:38:22;;;;;;;9.60;3.83;;;13.20;99.90;;;;;;4249286;27;20043;-86
2022/06/15 01:40:36;;;;;;;7.25;3.75;;;13.20;99.90;;;;;;4251072;27;20050;-86
2022/06/15 01:42:43;;;;;;;7.18;3.50;;;13.00;99.90;;;;;;4249247;27;20040;-86
2022/06/15 01:44:49;;;;;;;7.38;3.92;;;13.10;99.90;;;;;;4230314;28;20050;-86
2022/06/15 01:46:50;;;;;;;5.40;3.22;;;13.00;99.90;;;;;;4249224;27;20075;-86
2022/06/15 01:48:53;;;;;;;5.47;3.67;;;13.00;99.90;;;;;;4230981;28;20047;-86
2022/06/15 01:51:03;;;;;;;6.20;3.65;;;13.00;99.90;;;;;;4249431;27;20043;-86
2022/06/15 01:53:44;;;;;;;5.82;3.05;;;13.00;99.90;;;;;;4249059;27;20433;-86
2022/06/15 01:55:56;;;;;;;7.18;3.40;;;12.90;99.90;;;;;;4196383;28;20040;-86
2022/06/15 01:58:02;;;;;;;8.32;3.65;;;12.90;99.90;;;;;;4231985;27;20090;-86
2022/06/15 02:00:10;;;;;;;6.72;3.28;;;12.90;99.90;;;;;;4249091;27;20049;-84
2022/06/15 02:02:37;;;;;;;7.95;3.65;;;12.80;99.90;;;;;;4213643;28;20105;-86
2022/06/15 02:04:53;;;;;;;8.02;3.95;;;12.80;99.90;;;;;;4247972;27;20126;-86
2022/06/15 02:06:57;;;;;;;6.28;3.42;;;12.70;99.90;;;;;;4249096;27;20079;-86
2022/06/15 02:09:29;;;;;;;8.70;3.47;;;12.60;99.90;;;;;;4248882;27;20078;-86
2022/06/15 02:11:32;;;;;;;7.55;3.60;;;12.60;99.90;;;;;;4207399;28;20048;-86
2022/06/15 02:13:54;;;;;;;4.57;2.95;;;12.60;99.90;;;;;;4214475;28;20075;-86
2022/06/15 02:16:00;;;;;;;7.05;3.40;;;12.50;99.90;;;;;;4214892;28;20044;-86
2022/06/15 02:18:06;;;;;;;5.90;3.35;;;12.50;99.90;;;;;;4214858;28;20134;-87
2022/06/15 02:20:11;;;;;;;4.65;3.08;;;12.50;99.90;;;;;;4214312;28;20036;-86
2022/06/15 02:22:15;;;;;;;8.63;3.63;;;12.50;99.90;;;;;;4213280;28;20512;-86
2022/06/15 02:24:19;;;;;;;5.13;3.05;;;12.40;99.90;;;;;;4213331;28;20556;-85
2022/06/15 02:26:20;;;;;;;9.95;3.80;;;12.40;99.90;;;;;;4214838;28;20051;-86
2022/06/15 02:28:27;;;;;;;4.90;3.30;;;12.40;99.90;;;;;;4214227;28;20080;-86
2022/06/15 02:30:30;;;;;;;5.60;3.20;;;12.40;99.90;;;;;;4213578;28;20058;-86
2022/06/15 02:32:30;;;;;;;6.63;3.13;;;12.30;99.90;;;;;;4196961;28;20114;-86
2022/06/15 02:34:32;;;;;;;4.32;2.75;;;12.30;99.90;;;;;;4214653;28;20052;-86
2022/06/15 02:36:33;;;;;;;5.82;3.00;;;12.30;99.90;;;;;;4214016;28;20051;-86
2022/06/15 02:38:35;;;;;;;6.07;3.60;;;12.30;99.90;;;;;;4214561;28;20093;-86
2022/06/15 02:40:35;;;;;;;4.63;2.90;;;12.10;99.90;;;;;;4213380;28;20492;-86
2022/06/15 02:42:38;;;;;;;9.88;4.40;;;12.20;99.90;;;;;;4214799;28;20037;-86
2022/06/15 02:44:39;;;;;;;7.20;2.67;;;12.20;99.90;;;;;;4213316;28;20063;-86
2022/06/15 02:46:43;;;;;;;6.20;3.33;;;12.20;99.90;;;;;;4214911;28;20552;-85
2022/06/15 02:48:45;;;;;;;7.15;3.25;;;12.20;99.90;;;;;;4213360;28;20051;-86
2022/06/15 02:50:55;;;;;;;4.82;3.03;;;12.20;99.90;;;;;;4215271;28;20133;-85
2022/06/15 02:53:12;;;;;;;4.30;3.00;;;12.20;99.90;;;;;;4215583;28;20059;-85
2022/06/15 02:55:15;;;;;;;5.32;2.95;;;12.20;99.90;;;;;;4215608;28;20434;-85
2022/06/15 02:57:17;;;;;;;4.93;3.15;;;12.30;99.90;;;;;;4215910;28;20044;-86
2022/06/15 02:59:18;;;;;;;5.70;3.33;;;12.30;99.90;;;;;;4225941;28;20191;-86
2022/06/15 03:01:18;;;;;;;5.43;2.97;;;12.30;99.90;;;;;;4226325;28;20044;-85
2022/06/15 03:03:22;;;;;;;5.22;3.00;;;12.30;99.90;;;;;;4225377;28;20044;-85
2022/06/15 03:05:23;;;;;;;5.65;3.17;;;12.40;99.90;;;;;;4224704;28;20041;-86
2022/06/15 03:07:26;;;;;;;8.05;3.50;;;12.40;99.90;;;;;;4223775;28;20048;-85
2022/06/15 03:09:26;;;;;;;2.28;1.60;;;12.40;99.90;;;;;;4219875;28;20539;-86
2022/06/15 03:11:28;;;;;;;7.38;2.28;;;12.40;99.90;;;;;;4245123;27;20055;-86
2022/06/15 03:13:28;;;;;;;5.50;2.30;;;12.50;99.90;;;;;;4229083;28;20515;-86
2022/06/15 03:15:29;;;;;;;5.00;2.97;;;12.50;99.90;;;;;;4247224;27;20333;-85
2022/06/15 03:17:30;;;;;;;4.82;2.45;;;12.60;99.90;;;;;;4229529;28;20089;-85
2022/06/15 03:19:31;;;;;;;4.25;2.50;;;12.60;99.90;;;;;;4229675;28;20043;-86
2022/06/15 03:21:31;;;;;;;6.85;2.58;;;12.60;99.90;;;;;;4247717;27;20040;-85
2022/06/15 03:23:32;;;;;;;5.70;2.55;;;12.60;99.90;;;;;;4247721;27;20035;-85
2022/06/15 03:25:34;;;;;;;9.10;2.92;;;12.70;99.90;;;;;;4229694;28;20039;-85
2022/06/15 03:27:35;;;;;;;7.20;2.80;;;12.60;99.90;;;;;;4247504;27;20035;-86
2022/06/15 03:29:36;;;;;;;5.57;2.92;;;12.60;99.90;;;;;;4229136;28;20056;-86
2022/06/15 03:31:36;;;;;;;6.20;2.90;;;12.60;99.90;;;;;;4247109;27;20039;-86
2022/06/15 03:33:37;;;;;;;5.25;2.80;;;12.70;99.90;;;;;;4247286;28;20043;-86
2022/06/15 03:35:39;;;;;;;8.40;2.97;;;12.70;99.90;;;;;;4247013;27;20495;-85
2022/06/15 03:37:40;;;;;;;6.45;3.55;;;12.70;99.90;;;;;;4247600;28;20122;-85
2022/06/15 03:39:40;;;;;;;5.20;3.05;;;12.70;99.90;;;;;;4247471;28;20061;-85
2022/06/15 03:41:42;;;;;;;6.75;3.00;;;12.70;99.90;;;;;;4247347;28;20035;-85
2022/06/15 03:43:43;;;;;;;3.72;2.60;;;12.80;99.90;;;;;;4247477;28;20042;-85
2022/06/15 03:45:44;;;;;;;6.05;2.33;;;12.80;99.90;;;;;;4247545;28;20488;-85
2022/06/15 03:47:45;;;;;;;11.13;3.03;;;12.90;99.90;;;;;;4247561;28;20043;-86
2022/06/15 03:49:52;;;;;;;2.97;2.22;;;12.80;99.90;;;;;;4247244;28;20069;-85
2022/06/15 03:51:52;;;;;;;4.38;2.17;;;12.90;99.90;;;;;;4247447;28;20039;-86
2022/06/15 03:53:53;;;;;;;6.47;2.90;;;12.90;99.90;;;;;;4247278;28;20047;-86
2022/06/15 03:55:53;;;;;;;5.22;2.83;;;12.80;99.90;;;;;;4247548;28;20147;-86
2022/06/15 03:57:58;;;;;;;6.97;3.08;;;13.00;99.90;;;;;;4247267;28;20039;-86
2022/06/15 04:00:00;;;;;;;7.35;2.60;;;13.00;99.90;;;;;;4229341;28;20084;-86
2022/06/15 04:02:00;;;;;;;3.40;2.42;;;13.00;99.90;;;;;;4246931;28;20039;-85
2022/06/15 04:04:02;;;;;;;6.20;2.50;;;13.00;99.90;;;;;;4247410;28;20043;-86
2022/06/15 04:06:03;;;;;;;6.35;2.50;;;13.10;99.90;;;;;;4247381;28;20493;-86
2022/06/15 04:10:24;;;;;;;5.25;3.35;;;13.10;99.90;;;;;;4246542;27;20063;-85
2022/06/15 04:12:25;;;;;;;5.55;3.70;;;13.10;99.90;;;;;;4247197;28;20052;-85
2022/06/15 04:14:32;;;;;;;5.80;2.90;;;13.10;99.90;;;;;;4247054;28;20035;-86
2022/06/15 04:16:35;;;;;;;9.20;2.92;;;13.10;99.90;;;;;;4229020;28;20445;-86
2022/06/15 04:18:35;;;;;;;5.00;3.10;;;13.10;99.90;;;;;;4247304;28;20047;-86
2022/06/15 04:20:36;;;;;;;8.75;3.50;;;13.10;99.90;;;;;;4246547;28;20079;-84
2022/06/15 04:22:37;;;;;;;7.13;2.92;;;13.10;99.90;;;;;;4247247;28;20468;-85
2022/06/15 04:24:39;;;;;;;6.30;3.20;;;13.20;99.90;;;;;;4247217;28;20039;-86
2022/06/15 04:26:40;;;;;;;7.32;3.65;;;13.20;99.90;;;;;;4228808;28;20070;-86
2022/06/15 04:28:43;;;;;;;7.07;2.90;;;13.20;99.90;;;;;;4245054;28;20050;-85
2022/06/15 04:30:44;;;;;;;8.88;3.30;;;13.30;99.90;;;;;;4234302;28;20438;-85
2022/06/15 04:32:45;;;;;;;14.07;4.85;;;13.30;99.90;;;;;;4229840;28;20092;-86
2022/06/15 04:34:45;;;;;;;6.47;3.30;;;13.40;99.90;;;;;;4223725;28;20518;-86
2022/06/15 04:36:46;;;;;;;10.05;3.83;;;13.40;99.90;;;;;;4247125;28;20122;-86
2022/06/15 04:38:47;;;;;;;5.70;3.33;;;13.40;99.90;;;;;;4228415;28;20495;-85
2022/06/15 04:40:47;;;;;;;9.50;3.80;;;13.50;99.90;;;;;;4247017;28;20050;-85
2022/06/15 04:42:48;;;;;;;11.32;4.15;;;13.50;99.90;;;;;;4228703;28;20120;-85
2022/06/15 04:44:49;;;;;;;10.32;3.90;;;13.50;99.90;;;;;;4247029;28;20039;-86
2022/06/15 04:46:49;;;;;;;9.95;4.32;;;13.60;99.90;;;;;;4235785;28;20042;-86
2022/06/15 04:48:50;;;;;;;8.30;4.38;;;13.60;99.90;;;;;;4232661;28;20043;-85
2022/06/15 04:50:51;;;;;;;5.32;3.45;;;13.60;99.90;;;;;;4233051;28;20080;-86
2022/06/15 04:52:52;;;;;;;5.85;3.20;;;13.70;99.90;;;;;;4232479;28;20040;-86
2022/06/15 04:54:53;;;;;;;9.57;3.97;;;13.70;99.90;;;;;;4214654;28;20048;-86
2022/06/15 04:56:54;;;;;;;6.82;3.88;;;13.70;99.90;;;;;;4232747;28;20130;-86
2022/06/15 04:58:56;;;;;;;10.48;3.42;;;13.70;99.90;;;;;;4232785;28;20423;-86
2022/06/15 05:00:57;;;;;;;7.03;3.72;;;13.80;99.90;;;;;;4214730;28;20059;-86
2022/06/15 05:02:58;;;;;;;8.38;4.05;;;13.80;99.90;;;;;;4214430;28;20040;-86
2022/06/15 05:04:59;;;;;;;7.38;3.80;;;13.80;99.90;;;;;;4232796;28;20040;-86
2022/06/15 05:07:00;;;;;;;6.20;3.78;;;13.90;99.90;;;;;;4232561;28;20142;-85
2022/06/15 05:09:05;;;;;;;7.80;3.30;;;13.90;99.90;;;;;;4214639;28;20040;-85
2022/06/15 05:11:06;;;;;;;9.02;3.90;;;14.00;99.90;;;;;;4232587;28;20059;-85
2022/06/15 05:13:07;;;;;;;6.25;3.42;;;14.00;99.90;;;;;;4213781;28;20404;-86
2022/06/15 05:15:08;;;;;;;9.55;3.92;;;14.10;99.90;;;;;;4232402;28;20058;-86
2022/06/15 05:17:09;;;;;;;7.32;3.83;;;14.20;99.90;;;;;;4232597;28;20079;-86
2022/06/15 05:19:10;;;;;;;7.63;3.40;;;14.20;99.90;;;;;;4232383;28;20039;-85
2022/06/15 05:21:10;;;;;;;5.70;3.13;;;14.20;99.90;;;;;;4214411;28;20531;-86
2022/06/15 05:23:13;;;;;;;7.13;3.78;;;14.30;99.90;;;;;;4242409;27;20407;-86
2022/06/15 05:25:14;;;;;;;7.25;3.47;;;14.40;99.90;;;;;;4249343;27;20035;-86
2022/06/15 05:27:16;;;;;;;9.38;3.85;;;14.40;99.90;;;;;;4249380;27;20054;-86
2022/06/15 05:29:17;;;;;;;7.43;3.38;;;14.40;99.90;;;;;;4231208;28;20043;-86
2022/06/15 05:31:20;;;;;;;6.68;3.80;;;14.50;99.90;;;;;;4249500;27;20051;-86
2022/06/15 05:33:20;;;;;;;8.52;3.88;;;14.50;99.90;;;;;;4249390;27;20046;-86
2022/06/15 05:35:21;;;;;;;8.73;4.32;;;14.50;99.90;;;;;;4231296;28;20047;-86
2022/06/15 05:37:22;;;;;;;8.02;3.75;;;14.60;99.90;;;;;;4249545;27;20487;-86
2022/06/15 05:39:23;;;;;;;6.30;3.38;;;14.60;99.90;;;;;;4249296;27;20457;-86
2022/06/15 05:41:24;;;;;;;7.20;3.20;;;14.60;99.90;;;;;;4231443;28;20048;-85
2022/06/15 05:43:25;;;;;;;5.78;3.58;;;14.70;99.90;;;;;;4243695;27;20042;-86
2022/06/15 05:45:26;;;;;;;7.97;3.90;;;14.70;99.90;;;;;;4239972;27;20069;-87
2022/06/15 05:47:26;;;;;;;8.80;3.83;;;14.70;99.90;;;;;;4213611;28;20495;-86
2022/06/15 05:49:29;;;;;;;10.18;3.50;;;14.80;99.90;;;;;;4240462;27;20075;-87
2022/06/15 05:51:29;;;;;;;5.22;4.07;;;14.90;99.90;;;;;;4249424;27;20043;-86
2022/06/15 05:53:30;;;;;;;6.57;3.20;;;15.00;99.90;;;;;;4249221;27;20039;-86
2022/06/15 05:55:31;;;;;;;6.93;3.35;;;15.10;99.90;;;;;;4249375;27;20071;-86
2022/06/15 05:57:32;;;;;;;7.93;3.20;;;15.30;99.90;;;;;;4249258;27;20070;-87
2022/06/15 05:59:33;;;;;;;9.90;3.30;;;15.40;99.90;;;;;;4247906;27;20490;-86
2022/06/15 06:01:36;;;;;;;8.18;3.30;;;15.50;99.90;;;;;;4240647;27;20096;-86
2022/06/15 06:03:37;;;;;;;7.88;3.60;;;15.60;99.90;;;;;;4231985;28;20063;-87
2022/06/15 06:05:38;;;;;;;7.50;3.17;;;15.70;99.90;;;;;;4231891;28;20066;-87
2022/06/15 06:07:39;;;;;;;8.55;3.75;;;15.70;99.90;;;;;;4233797;28;20069;-87
2022/06/15 06:09:40;;;;;;;6.15;3.28;;;15.80;99.90;;;;;;4213160;28;20420;-85
2022/06/15 06:11:41;;;;;;;8.48;4.03;;;15.50;99.90;;;;;;4196650;28;20045;-87
2022/06/15 06:13:42;;;;;;;11.27;3.38;;;16.00;99.90;;;;;;4231621;28;20140;-86
2022/06/15 06:15:43;;;;;;;7.03;2.83;;;16.00;99.90;;;;;;4213314;28;20055;-86
2022/06/15 06:17:45;;;;;;;5.90;2.97;;;16.10;99.90;;;;;;4231516;28;20044;-86
2022/06/15 06:19:45;;;;;;;10.32;2.70;;;16.20;99.90;;;;;;4213972;28;20485;-85
2022/06/15 06:21:46;;;;;;;5.72;2.63;;;16.30;99.90;;;;;;4231597;28;20043;-86
2022/06/15 06:23:48;;;;;;;6.50;2.85;;;16.40;99.90;;;;;;4213429;28;20047;-86
2022/06/15 06:25:51;;;;;;;3.70;2.30;;;16.50;99.90;;;;;;4231797;28;20479;-86
2022/06/15 06:27:52;;;;;;;4.47;2.78;;;16.50;99.90;;;;;;4231518;28;20044;-86
2022/06/15 06:29:52;;;;;;;7.90;3.67;;;16.60;99.90;;;;;;4231026;28;20089;-87
2022/06/15 06:31:53;;;;;;;5.78;2.72;;;16.70;99.90;;;;;;4231199;28;20047;-86
2022/06/15 06:33:54;;;;;;;6.70;2.92;;;16.80;99.90;;;;;;4231465;28;20078;-86
2022/06/15 06:35:57;;;;;;;6.75;2.90;;;16.80;99.90;;;;;;4231423;28;20043;-86
2022/06/15 06:37:57;;;;;;;6.57;2.70;;;16.90;99.90;;;;;;4238370;27;20121;-86
2022/06/15 06:39:58;;;;;;;4.93;2.55;;;17.00;99.90;;;;;;4248178;27;20043;-86
2022/06/15 06:42:02;;;;;;;7.28;2.60;;;16.90;99.90;;;;;;4230208;28;20062;-87
2022/06/15 06:44:04;;;;;;;10.82;3.13;;;17.00;99.90;;;;;;4229503;28;20063;-86
2022/06/15 06:46:05;;;;;;;7.65;2.35;;;16.90;99.90;;;;;;4248662;27;20479;-88
2022/06/15 06:48:06;;;;;;;5.60;1.92;;;16.90;99.90;;;;;;4246361;27;20039;-86
2022/06/15 06:50:07;;;;;;;6.68;2.30;;;17.00;99.90;;;;;;4215611;28;20048;-85
2022/06/15 06:52:08;;;;;;;7.55;2.20;;;17.10;99.90;;;;;;4249229;27;20499;-87
2022/06/15 06:54:11;;;;;;;4.97;2.20;;;17.20;99.90;;;;;;4248297;27;20046;-86
2022/06/15 06:56:13;;;;;;;5.80;2.33;;;17.30;99.90;;;;;;4249377;27;20399;-85
2022/06/15 06:58:14;;;;;;;4.50;2.58;;;17.30;99.90;;;;;;4247953;27;20043;-86
2022/06/15 07:00:15;;;;;;;7.50;2.10;;;17.40;99.90;;;;;;4254209;27;20448;-86
2022/06/15 07:02:16;;;;;;;3.95;1.60;;;17.40;99.90;;;;;;4237546;28;20120;-86
2022/06/15 07:04:17;;;;;;;4.38;1.80;;;17.50;99.80;;;;;;4233623;28;20126;-86
2022/06/15 07:06:18;;;;;;;4.85;1.55;;;17.60;99.70;;;;;;4224826;28;20075;-87
2022/06/15 07:08:19;;;;;;;4.45;1.98;;;17.60;99.60;;;;;;4228186;28;20027;-86
2022/06/15 07:10:20;;;;;;;2.78;1.92;;;17.70;99.50;;;;;;4227160;28;20059;-86
2022/06/15 07:12:20;;;;;;;3.33;1.83;;;17.80;99.40;;;;;;4246692;28;20048;-87
2022/06/15 07:14:21;;;;;;;4.55;1.77;;;17.90;99.30;;;;;;4229219;28;20152;-88
2022/06/15 07:16:22;;;;;;;6.13;1.90;;;17.90;99.20;;;;;;4242855;28;20058;-88
2022/06/15 07:18:23;;;;;;;6.43;1.83;;;17.90;99.10;;;;;;4266501;27;20042;-88
2022/06/15 07:20:24;;;;;;;9.48;2.67;;;18.00;98.90;;;;;;4238883;28;20063;-88
2022/06/15 07:22:25;;;;;;;7.63;2.58;;;18.10;98.90;;;;;;4246566;28;20047;-88
2022/06/15 07:24:26;;;;;;;5.70;2.40;;;18.10;98.80;;;;;;4264438;27;20044;-87
2022/06/15 07:26:33;;;;;;;3.13;1.77;;;18.10;98.60;;;;;;4247324;27;20530;-87
2022/06/15 07:28:34;;;;;;;5.65;1.90;;;18.20;98.50;;;;;;4247825;27;20054;-87
2022/06/15 07:30:36;;;;;;;4.53;2.13;;;18.30;98.40;;;;;;4229397;28;20040;-87
2022/06/15 07:32:39;;;;;;;5.13;2.08;;;18.40;98.40;;;;;;4247769;27;20437;-86
2022/06/15 07:34:41;;;;;;;3.55;1.95;;;18.50;97.90;;;;;;4247883;28;20055;-88
2022/06/15 07:36:46;;;;;;;3.85;1.90;;;18.50;97.60;;;;;;4229372;28;20126;-87
2022/06/15 07:38:47;;;;;;;3.78;1.40;;;18.60;97.40;;;;;;4229471;28;20048;-87
2022/06/15 07:40:49;;;;;;;6.15;1.80;;;18.70;97.10;;;;;;4247377;28;20368;-88
2022/06/15 07:42:52;;;;;;;4.68;1.50;;;18.80;96.60;;;;;;4247534;28;20036;-87
2022/06/15 07:44:52;;;;;;;4.30;1.67;;;18.90;96.30;;;;;;4247825;28;20049;-87
2022/06/15 07:49:54;;;;;;;9.77;1.65;;;18.90;96.20;;;;;;4247848;28;20054;-87
2022/06/15 07:51:35;;;;;;;;;;;19.20;96.00;;;;;;4230116;28;20101;-87
2022/06/15 07:53:37;;;;;;;2.33;1.33;;;19.30;95.20;;;;;;4247046;28;20420;-87
2022/06/15 07:55:41;;;;;;;3.13;1.35;;;19.20;95.00;;;;;;4229246;28;20441;-86
2022/06/15 07:57:41;;;;;;;2.78;1.65;;;19.40;94.80;;;;;;4247278;28;20479;-87
2022/06/15 07:59:42;;;;;;;3.30;1.90;;;19.60;94.60;;;;;;4247589;28;20039;-88
2022/06/15 08:01:44;;;;;;;2.95;1.40;;;19.70;94.20;;;;;;4228761;28;20051;-87
2022/06/15 08:03:45;;;;;;;3.95;2.08;;;19.90;94.20;;;;;;4247613;28;20540;-87
2022/06/15 08:05:49;;;;;;;4.25;1.88;;;20.00;93.80;;;;;;4247455;27;20043;-87
2022/06/15 08:07:50;;;;;;;6.22;1.55;;;20.00;93.70;;;;;;4229291;28;20055;-88
2022/06/15 08:09:51;;;;;;;3.65;1.80;;;19.90;93.50;;;;;;4247170;27;20071;-88
2022/06/15 08:14:12;;;;;;;3.58;1.73;;;20.00;93.80;;;;;;4246920;28;20070;-86
2022/06/15 08:16:16;;;;;;;4.68;1.50;;;20.20;93.60;;;;;;4247423;28;20444;-87
2022/06/15 08:18:24;;;;;;;3.78;1.45;;;20.40;93.00;;;;;;4247331;28;20054;-87
2022/06/15 08:20:35;;;;;;;5.00;1.70;;;20.70;92.30;;;;;;4247314;28;20458;-87
2022/06/15 08:22:40;;;;;;;4.30;1.38;;;20.90;92.40;;;;;;4249378;27;20284;-87
2022/06/15 08:24:42;;;;;;;3.75;1.08;;;21.00;91.80;;;;;;4250483;27;20039;-87
2022/06/15 08:26:43;;;;;;;3.47;1.23;;;20.80;91.20;;;;;;4250340;27;20043;-87
2022/06/15 08:28:50;;;;;;;4.05;1.80;;;20.90;90.90;;;;;;4232093;28;20462;-88
2022/06/15 08:30:52;;;;;;;3.97;1.27;;;21.10;90.80;;;;;;4235189;28;20051;-87
2022/06/15 08:32:53;;;;;;;5.45;1.38;;;;;;;;;;4250062;27;20043;-87
2022/06/15 08:34:54;;;;;;;2.90;1.23;;;21.30;90.80;;;;;;4250413;27;20047;-88
2022/06/15 08:36:56;;;;;;;7.03;1.50;;;21.80;89.80;;;;;;4231945;28;20044;-87
2022/06/15 08:38:57;;;;;;;1.98;1.20;;;;;;;;;;4250396;27;20100;-87
2022/06/15 08:41:01;;;;;;;5.82;1.33;;;;;;;;;;4250120;27;20075;-87
2022/06/15 08:43:28;;;;;;;4.45;1.33;;;21.90;89.00;;;;;;4250325;27;20491;-87
2022/06/15 08:45:34;;;;;;;2.17;1.08;;;;;;;;;;4231569;28;20059;-87
2022/06/15 08:47:38;;;;;;;3.33;1.23;;;;;;;;;;4250193;27;20066;-88
2022/06/15 08:49:58;;;;;;;3.85;1.35;;;22.40;85.80;;;;;;4250086;27;20130;-88
2022/06/15 08:52:03;;;;;;;2.20;1.33;;;23.10;82.90;;;;;;4231847;28;20052;-87
2022/06/15 08:54:20;;;;;;;4.03;1.23;;;23.40;82.90;;;;;;4250210;27;20533;-88
2022/06/15 08:56:26;;;;;;;3.20;1.30;;;23.50;79.70;;;;;;4250308;27;20047;-88
2022/06/15 08:58:47;;;;;;;6.97;1.63;;;23.60;83.30;;;;;;4249964;27;20051;-88
2022/06/15 09:00:51;;;;;;;6.00;1.10;;;23.50;82.00;;;;;;4249884;27;20043;-88
2022/06/15 09:02:52;;;;;;;4.03;1.02;;;23.50;82.30;;;;;;4250495;27;20043;-88
2022/06/15 09:05:01;;;;;;;3.35;1.60;;;23.50;81.80;;;;;;4250036;27;20039;-87
2022/06/15 09:07:17;;;;;;;7.43;1.67;;;23.70;81.70;;;;;;4250401;27;20498;-86
2022/06/15 09:09:43;;;;;;;5.07;1.05;;;23.80;80.00;;;;;;4250150;27;20094;-88
2022/06/15 09:12:49;;;;;;;4.28;1.35;;;24.00;78.60;;;;;;4249894;27;20062;-88
2022/06/15 09:14:36;;;;;;;4.68;1.00;;;24.30;79.40;;;;;;4249414;27;20047;-88
2022/06/15 09:16:44;;;;;;;9.75;1.20;;;24.50;77.20;;;;;;4250130;27;20495;-88
2022/06/15 09:18:53;;;;;;;3.08;1.13;;;24.60;75.90;;;;;;4249944;27;20046;-88
2022/06/15 09:21:04;;;;;;;4.32;1.30;;;24.60;75.60;;;;;;4249357;27;20054;-88
2022/06/15 09:23:10;;;;;;;5.72;1.02;;;24.80;74.40;;;;;;4249675;27;20063;-87
2022/06/15 09:25:23;;;;;;;5.47;1.20;;;24.80;73.70;;;;;;4250098;27;20035;-88
2022/06/15 09:27:47;;;;;;;5.18;1.27;;;24.50;71.70;;;;;;4249673;27;20047;-88
2022/06/15 09:29:57;;;;;;;3.03;0.90;;;24.30;72.90;;;;;;4257019;27;20521;-88
2022/06/15 09:32:22;;;;;;;2.92;0.98;;;24.40;73.40;;;;;;4243146;28;20048;-88
2022/06/15 09:35:03;;;;;;;3.13;0.90;;;24.60;70.70;;;;;;4248679;27;20039;-88
2022/06/15 09:37:17;;;;;;;1.83;1.00;;;25.10;67.00;;;;;;4248454;27;20047;-88
2022/06/15 09:39:20;;;;;;;1.25;0.95;;;25.20;68.50;;;;;;4249523;27;20497;-88
2022/06/15 09:41:27;;;;;;;3.13;1.20;;;25.00;69.70;;;;;;4249394;27;20479;-87
2022/06/15 09:44:08;;;;;;;4.35;1.40;;;24.80;67.90;;;;;;4249333;27;20043;-88
2022/06/15 09:46:22;;;;;;;5.20;1.30;;;24.70;67.50;;;;;;4234724;27;20047;-88
2022/06/15 09:48:49;;;;;;;7.20;1.75;;;24.70;69.00;;;;;;4249204;27;20050;-88
2022/06/15 09:51:24;;;;;;;2.50;0.90;;;25.00;66.10;;;;;;4219710;28;20126;-88
2022/06/15 09:53:45;;;;;;;3.03;1.00;;;25.20;62.40;;;;;;4237651;27;20051;-87
2022/06/15 09:55:55;;;;;;;3.50;0.80;;;25.30;60.30;;;;;;4248983;27;20107;-88
2022/06/15 09:57:56;;;;;;;3.00;1.10;;;25.30;65.50;;;;;;4230673;28;20082;-88
2022/06/15 09:59:57;;;;;;;2.92;0.85;;;25.10;65.10;;;;;;4249297;27;20055;-87
2022/06/15 10:01:58;;;;;;;5.10;1.40;;;24.90;64.60;;;;;;4249139;27;20074;-88
2022/06/15 10:04:01;;;;;;;4.28;1.42;;;24.80;64.40;;;;;;4248812;27;20042;-88
2022/06/15 10:06:24;;;;;;;5.65;1.10;;;24.90;65.00;;;;;;4230624;28;20052;-88
2022/06/15 10:08:26;;;;;;;4.53;0.90;;;25.20;62.20;;;;;;4248957;27;20039;-88
2022/06/15 10:10:33;;;;;;;1.38;0.90;;;25.50;63.70;;;;;;4248810;27;20100;-87
2022/06/15 10:15:05;;;;;;;3.70;0.80;;;25.50;63.40;;;;;;4248737;27;20047;-88
2022/06/15 10:17:30;;;;;;;3.13;1.20;;;25.50;61.90;;;;;;4251231;27;20043;-87
2022/06/15 10:19:34;;;;;;;3.55;1.23;;;25.60;60.30;;;;;;4219648;28;20147;-89
2022/06/15 10:21:36;;;;;;;2.10;0.82;;;25.60;63.40;;;;;;4248858;27;20045;-89
2022/06/15 10:24:02;;;;;;;3.40;0.90;;;25.90;63.60;;;;;;4248263;27;20039;-88
2022/06/15 10:26:03;;;;;;;4.82;1.20;;;25.70;61.00;;;;;;4248678;27;20569;-89
2022/06/15 10:28:14;;;;;;;2.72;1.08;;;25.70;62.90;;;;;;4248451;27;20051;-87
2022/06/15 10:30:20;;;;;;;3.10;1.20;;;25.50;61.60;;;;;;4248670;27;20450;-88
2022/06/15 10:32:21;;;;;;;5.22;1.25;;;25.30;60.60;;;;;;4230075;28;20047;-87
2022/06/15 10:34:27;;;;;;;2.20;1.15;;;25.20;62.00;;;;;;4248529;27;20036;-88
2022/06/15 10:36:31;;;;;;;6.53;1.25;;;25.10;61.40;;;;;;4248060;27;20047;-88
2022/06/15 10:38:40;;;;;;;3.65;1.33;;;25.00;61.70;;;;;;4248579;27;20482;-88
2022/06/15 10:43:32;;;;;;;3.78;1.05;;;25.00;59.70;;;;;;4248351;27;20074;-88
2022/06/15 10:45:42;;;;;;;4.47;0.90;;;24.60;60.70;;;;;;4248366;27;20062;-88
2022/06/15 10:47:50;;;;;;;5.82;1.30;;;24.50;60.80;;;;;;4248143;27;20074;-87
2022/06/15 10:49:58;;;;;;;5.40;1.40;;;24.50;61.90;;;;;;4248018;27;20047;-88
2022/06/15 10:51:59;;;;;;;5.28;1.40;;;24.40;61.90;;;;;;4248402;27;20042;-87
2022/06/15 10:54:18;;;;;;;3.35;1.80;;;24.30;62.60;;;;;;4248416;27;20110;-87
2022/06/15 11:03:41;;;;;;;3.63;1.48;;;24.00;64.10;;;;;;4247857;27;20051;-88
2022/06/15 11:05:44;;;;;;;4.80;1.50;;;23.90;64.30;;;;;;4247713;27;20036;-87
2022/06/15 11:07:53;;;;;;;5.95;1.25;;;23.90;64.70;;;;;;4247988;27;20441;-87
2022/06/15 11:09:53;;;;;;;4.78;1.55;;;24.00;65.10;;;;;;4229643;28;20130;-88
2022/06/15 11:11:56;;;;;;;3.90;1.80;;;24.20;64.90;;;;;;4247544;27;20050;-87